sensor_id;sensor_type;location;lat;lon;timestamp;temperature;humidity
14775;DHT22;7479;47.042;15.160;2022-10-31T07:25:56;9.30;99.90
14775;DHT22;7479;47.042;15.160;2022-10-31T07:55:33;10.50;99.90
14775;DHT22;7479;47.042;15.160;2022-10-31T08:16:21;11.60;99.90
14775;DHT22;7479;47.042;15.160;2022-10-31T08:34:56;12.60;99.90
14775;DHT22;7479;47.042;15.160;2022-10-31T08:40:10;12.80;99.90
14775;DHT22;7479;47.042;15.160;2022-10-31T08:57:37;13.80;99.90
14775;DHT22;7479;47.042;15.160;2022-10-31T09:02:31;14.00;99.90
14775;DHT22;7479;47.042;15.160;2022-10-31T09:07:26;14.40;99.90
14775;DHT22;7479;47.042;15.160;2022-10-31T09:12:20;14.80;99.90
14775;DHT22;7479;47.042;15.160;2022-10-31T09:17:35;15.30;99.90
14775;DHT22;7479;47.042;15.160;2022-10-31T09:22:56;15.80;99.90
14775;DHT22;7479;47.042;15.160;2022-10-31T09:27:51;16.30;99.90
14775;DHT22;7479;47.042;15.160;2022-10-31T09:32:46;16.70;99.90
14775;DHT22;7479;47.042;15.160;2022-10-31T09:37:41;17.00;99.90
14775;DHT22;7479;47.042;15.160;2022-10-31T09:42:47;17.20;99.90
14775;DHT22;7479;47.042;15.160;2022-10-31T09:48:02;17.50;99.90
14775;DHT22;7479;47.042;15.160;2022-10-31T09:53:03;17.80;99.90
14775;DHT22;7479;47.042;15.160;2022-10-31T09:57:58;18.00;99.90
14775;DHT22;7479;47.042;15.160;2022-10-31T10:02:57;18.10;99.90
14775;DHT22;7479;47.042;15.160;2022-10-31T10:08:00;18.40;99.90
14775;DHT22;7479;47.042;15.160;2022-10-31T10:13:35;18.70;99.90
14775;DHT22;7479;47.042;15.160;2022-10-31T10:18:42;19.10;99.90
14775;DHT22;7479;47.042;15.160;2022-10-31T10:24:00;19.40;99.90
14775;DHT22;7479;47.042;15.160;2022-10-31T10:29:01;19.80;99.90
14775;DHT22;7479;47.042;15.160;2022-10-31T10:34:02;20.10;99.90
14775;DHT22;7479;47.042;15.160;2022-10-31T10:39:03;20.40;99.90
14775;DHT22;7479;47.042;15.160;2022-10-31T10:43:58;20.70;99.90
14775;DHT22;7479;47.042;15.160;2022-10-31T10:48:58;21.00;99.90
14775;DHT22;7479;47.042;15.160;2022-10-31T10:54:11;21.30;99.90
14775;DHT22;7479;47.042;15.160;2022-10-31T10:59:19;21.60;99.90
14775;DHT22;7479;47.042;15.160;2022-10-31T11:04:25;22.30;99.90
14775;DHT22;7479;47.042;15.160;2022-10-31T11:09:20;22.60;99.90
14775;DHT22;7479;47.042;15.160;2022-10-31T11:14:15;22.70;99.90
14775;DHT22;7479;47.042;15.160;2022-10-31T11:19:16;23.10;99.90
14775;DHT22;7479;47.042;15.160;2022-10-31T11:24:18;23.40;98.80
14775;DHT22;7479;47.042;15.160;2022-10-31T11:29:20;23.60;98.50
14775;DHT22;7479;47.042;15.160;2022-10-31T11:34:29;23.80;98.00
14775;DHT22;7479;47.042;15.160;2022-10-31T11:39:26;24.20;97.70
14775;DHT22;7479;47.042;15.160;2022-10-31T11:44:23;24.30;96.90
14775;DHT22;7479;47.042;15.160;2022-10-31T11:49:27;24.60;96.20
14775;DHT22;7479;47.042;15.160;2022-10-31T11:54:38;24.90;95.30
14775;DHT22;7479;47.042;15.160;2022-10-31T11:59:50;25.20;94.20
14775;DHT22;7479;47.042;15.160;2022-10-31T12:04:50;25.40;92.70
14775;DHT22;7479;47.042;15.160;2022-10-31T12:09:49;25.70;92.40
14775;DHT22;7479;47.042;15.160;2022-10-31T12:14:55;25.90;91.40
14775;DHT22;7479;47.042;15.160;2022-10-31T12:20:04;25.90;91.40
14775;DHT22;7479;47.042;15.160;2022-10-31T12:25:21;26.10;91.80
14775;DHT22;7479;47.042;15.160;2022-10-31T12:30:50;26.50;90.40
14775;DHT22;7479;47.042;15.160;2022-10-31T12:36:12;26.70;90.30
14775;DHT22;7479;47.042;15.160;2022-10-31T12:41:24;26.90;90.20
14775;DHT22;7479;47.042;15.160;2022-10-31T12:46:43;26.90;86.90
14775;DHT22;7479;47.042;15.160;2022-10-31T12:52:03;26.90;86.60
14775;DHT22;7479;47.042;15.160;2022-10-31T12:57:07;27.10;88.40
14775;DHT22;7479;47.042;15.160;2022-10-31T13:02:13;27.40;87.40
14775;DHT22;7479;47.042;15.160;2022-10-31T13:07:13;28.00;85.60
14775;DHT22;7479;47.042;15.160;2022-10-31T13:12:11;28.20;83.50
14775;DHT22;7479;47.042;15.160;2022-10-31T13:17:06;28.80;82.70
14775;DHT22;7479;47.042;15.160;2022-10-31T13:22:06;29.30;81.60
14775;DHT22;7479;47.042;15.160;2022-10-31T13:27:03;29.20;79.70
14775;DHT22;7479;47.042;15.160;2022-10-31T13:32:06;29.20;79.90
14775;DHT22;7479;47.042;15.160;2022-10-31T13:37:05;29.30;80.10
14775;DHT22;7479;47.042;15.160;2022-10-31T13:42:08;29.80;78.80
14775;DHT22;7479;47.042;15.160;2022-10-31T13:47:22;30.10;77.60
14775;DHT22;7479;47.042;15.160;2022-10-31T13:52:22;30.10;77.30
14775;DHT22;7479;47.042;15.160;2022-10-31T13:57:18;30.10;76.70
14775;DHT22;7479;47.042;15.160;2022-10-31T14:02:15;29.80;77.40
14775;DHT22;7479;47.042;15.160;2022-10-31T14:07:12;29.70;77.40
14775;DHT22;7479;47.042;15.160;2022-10-31T14:12:08;29.60;77.50
14775;DHT22;7479;47.042;15.160;2022-10-31T14:17:03;29.00;78.90
14775;DHT22;7479;47.042;15.160;2022-10-31T14:21:57;28.50;80.90
14775;DHT22;7479;47.042;15.160;2022-10-31T14:26:54;27.30;82.80
14775;DHT22;7479;47.042;15.160;2022-10-31T14:31:53;24.90;89.90
14775;DHT22;7479;47.042;15.160;2022-10-31T14:36:58;23.40;92.80
14775;DHT22;7479;47.042;15.160;2022-10-31T14:42:05;22.50;94.90
14775;DHT22;7479;47.042;15.160;2022-10-31T14:47:08;21.80;96.60
14775;DHT22;7479;47.042;15.160;2022-10-31T14:52:07;21.40;97.80
14775;DHT22;7479;47.042;15.160;2022-10-31T14:57:06;21.10;98.70
14775;DHT22;7479;47.042;15.160;2022-10-31T15:02:07;20.80;99.60
14775;DHT22;7479;47.042;15.160;2022-10-31T15:07:10;20.50;99.90
14775;DHT22;7479;47.042;15.160;2022-10-31T15:12:24;20.20;99.90
14775;DHT22;7479;47.042;15.160;2022-10-31T15:17:19;19.90;99.90
14775;DHT22;7479;47.042;15.160;2022-10-31T15:22:15;19.60;99.90
14775;DHT22;7479;47.042;15.160;2022-10-31T15:27:12;19.30;99.90
14775;DHT22;7479;47.042;15.160;2022-10-31T15:32:19;19.00;99.90
14775;DHT22;7479;47.042;15.160;2022-10-31T15:37:16;18.70;99.90
14775;DHT22;7479;47.042;15.160;2022-10-31T15:42:19;18.50;99.90
14775;DHT22;7479;47.042;15.160;2022-10-31T15:47:19;18.30;99.90
14775;DHT22;7479;47.042;15.160;2022-10-31T15:52:17;18.10;99.90
14775;DHT22;7479;47.042;15.160;2022-10-31T15:57:12;17.90;99.90
14775;DHT22;7479;47.042;15.160;2022-10-31T16:02:10;17.60;99.90
14775;DHT22;7479;47.042;15.160;2022-10-31T16:07:14;17.50;99.90
14775;DHT22;7479;47.042;15.160;2022-10-31T16:12:15;17.30;99.90
14775;DHT22;7479;47.042;15.160;2022-10-31T16:17:15;17.20;99.90
14775;DHT22;7479;47.042;15.160;2022-10-31T16:22:18;17.10;99.90
14775;DHT22;7479;47.042;15.160;2022-10-31T16:27:18;16.90;99.90
14775;DHT22;7479;47.042;15.160;2022-10-31T16:32:26;16.70;99.90
14775;DHT22;7479;47.042;15.160;2022-10-31T16:37:24;16.50;99.90
14775;DHT22;7479;47.042;15.160;2022-10-31T16:42:17;16.30;99.90
14775;DHT22;7479;47.042;15.160;2022-10-31T16:47:13;16.20;99.90
14775;DHT22;7479;47.042;15.160;2022-10-31T16:52:08;16.00;99.90
14775;DHT22;7479;47.042;15.160;2022-10-31T16:57:06;15.90;99.90
14775;DHT22;7479;47.042;15.160;2022-10-31T17:02:00;15.90;99.90
14775;DHT22;7479;47.042;15.160;2022-10-31T17:06:55;15.70;99.90
14775;DHT22;7479;47.042;15.160;2022-10-31T17:11:51;15.50;99.90
14775;DHT22;7479;47.042;15.160;2022-10-31T17:16:47;15.40;99.90
14775;DHT22;7479;47.042;15.160;2022-10-31T17:21:41;15.30;99.90
14775;DHT22;7479;47.042;15.160;2022-10-31T17:26:35;15.10;99.90
14775;DHT22;7479;47.042;15.160;2022-10-31T17:31:31;14.90;99.90
14775;DHT22;7479;47.042;15.160;2022-10-31T17:36:28;14.80;99.90
14775;DHT22;7479;47.042;15.160;2022-10-31T17:41:23;14.60;99.90
